sensor_id;sensor_type;location;lat;lon;timestamp;pressure;altitude;pressure_sealevel;temperature;humidity
64675;BME280;51090;51.512;11.332;2023-01-26T00:00:54;100080.91;;;2.42;100.00
64675;BME280;51090;51.512;11.332;2023-01-26T00:03:21;100080.91;;;2.42;100.00
64675;BME280;51090;51.512;11.332;2023-01-26T00:05:47;100076.84;;;2.37;100.00
64675;BME280;51090;51.512;11.332;2023-01-26T00:08:13;100078.50;;;2.38;100.00
64675;BME280;51090;51.512;11.332;2023-01-26T00:10:40;100075.53;;;2.43;100.00
64675;BME280;51090;51.512;11.332;2023-01-26T00:13:18;100089.13;;;2.48;100.00
64675;BME280;51090;51.512;11.332;2023-01-26T00:15:47;100071.88;;;2.46;100.00
64675;BME280;51090;51.512;11.332;2023-01-26T00:18:14;100068.31;;;2.47;100.00
64675;BME280;51090;51.512;11.332;2023-01-26T00:20:40;100069.59;;;2.41;100.00
64675;BME280;51090;51.512;11.332;2023-01-26T00:23:05;100071.28;;;2.42;100.00
64675;BME280;51090;51.512;11.332;2023-01-26T00:25:31;100064.84;;;2.35;100.00
64675;BME280;51090;51.512;11.332;2023-01-26T00:27:57;100063.38;;;2.31;100.00
64675;BME280;51090;51.512;11.332;2023-01-26T00:30:23;100066.00;;;2.20;100.00
64675;BME280;51090;51.512;11.332;2023-01-26T00:32:48;100062.41;;;2.09;100.00
64675;BME280;51090;51.512;11.332;2023-01-26T00:35:14;100057.63;;;2.03;100.00
64675;BME280;51090;51.512;11.332;2023-01-26T00:37:41;100062.75;;;2.05;100.00
64675;BME280;51090;51.512;11.332;2023-01-26T00:40:08;100052.59;;;2.00;100.00
64675;BME280;51090;51.512;11.332;2023-01-26T00:42:34;100055.34;;;1.99;100.00
64675;BME280;51090;51.512;11.332;2023-01-26T00:45:00;100044.41;;;1.93;100.00
64675;BME280;51090;51.512;11.332;2023-01-26T00:47:25;100056.91;;;2.01;100.00
64675;BME280;51090;51.512;11.332;2023-01-26T00:49:51;100061.81;;;2.06;100.00
64675;BME280;51090;51.512;11.332;2023-01-26T00:52:17;100057.63;;;2.03;100.00
64675;BME280;51090;51.512;11.332;2023-01-26T00:54:42;100063.81;;;2.02;100.00
64675;BME280;51090;51.512;11.332;2023-01-26T00:57:08;100065.84;;;2.10;100.00
64675;BME280;51090;51.512;11.332;2023-01-26T00:59:34;100057.66;;;2.14;100.00
64675;BME280;51090;51.512;11.332;2023-01-26T01:02:00;100057.81;;;2.24;100.00
64675;BME280;51090;51.512;11.332;2023-01-26T01:04:30;100052.72;;;2.34;100.00
64675;BME280;51090;51.512;11.332;2023-01-26T01:06:56;100048.06;;;2.37;100.00
64675;BME280;51090;51.512;11.332;2023-01-26T01:09:22;100033.31;;;2.36;100.00
64675;BME280;51090;51.512;11.332;2023-01-26T01:11:48;100039.38;;;2.48;100.00
64675;BME280;51090;51.512;11.332;2023-01-26T01:14:14;100035.09;;;2.47;100.00
64675;BME280;51090;51.512;11.332;2023-01-26T01:16:41;100036.91;;;2.47;100.00
64675;BME280;51090;51.512;11.332;2023-01-26T01:19:07;100044.63;;;2.48;100.00
64675;BME280;51090;51.512;11.332;2023-01-26T01:21:37;100045.44;;;2.49;100.00
64675;BME280;51090;51.512;11.332;2023-01-26T01:24:03;100034.38;;;2.45;100.00
64675;BME280;51090;51.512;11.332;2023-01-26T01:26:29;100029.63;;;2.39;100.00
64675;BME280;51090;51.512;11.332;2023-01-26T01:28:55;100026.63;;;2.32;100.00
64675;BME280;51090;51.512;11.332;2023-01-26T01:31:22;100030.56;;;2.27;100.00
64675;BME280;51090;51.512;11.332;2023-01-26T01:33:48;100036.25;;;2.21;100.00
64675;BME280;51090;51.512;11.332;2023-01-26T01:36:15;100034.09;;;2.14;100.00
64675;BME280;51090;51.512;11.332;2023-01-26T01:38:42;100026.00;;;2.06;100.00
64675;BME280;51090;51.512;11.332;2023-01-26T01:41:09;100030.75;;;2.01;100.00
64675;BME280;51090;51.512;11.332;2023-01-26T01:43:35;100019.75;;;1.85;100.00
64675;BME280;51090;51.512;11.332;2023-01-26T01:46:10;100013.84;;;1.83;100.00
64675;BME280;51090;51.512;11.332;2023-01-26T01:51:44;100031.50;;;1.79;100.00
64675;BME280;51090;51.512;11.332;2023-01-26T01:54:15;100032.81;;;1.73;100.00
64675;BME280;51090;51.512;11.332;2023-01-26T01:56:47;100022.91;;;1.66;100.00
64675;BME280;51090;51.512;11.332;2023-01-26T01:59:14;100020.75;;;1.60;100.00
64675;BME280;51090;51.512;11.332;2023-01-26T02:01:46;100014.19;;;1.54;100.00
64675;BME280;51090;51.512;11.332;2023-01-26T02:04:12;100009.19;;;1.51;100.00
64675;BME280;51090;51.512;11.332;2023-01-26T02:06:49;100013.13;;;1.57;100.00
64675;BME280;51090;51.512;11.332;2023-01-26T02:09:16;100007.53;;;1.50;100.00
64675;BME280;51090;51.512;11.332;2023-01-26T02:12:02;100001.69;;;1.46;100.00
64675;BME280;51090;51.512;11.332;2023-01-26T02:14:32;100000.63;;;1.49;100.00
64675;BME280;51090;51.512;11.332;2023-01-26T02:16:58;99999.63;;;1.39;100.00
64675;BME280;51090;51.512;11.332;2023-01-26T02:28:22;99979.84;;;0.99;100.00
64675;BME280;51090;51.512;11.332;2023-01-26T02:30:49;99976.63;;;0.96;100.00
64675;BME280;51090;51.512;11.332;2023-01-26T02:33:19;99979.47;;;0.93;100.00
64675;BME280;51090;51.512;11.332;2023-01-26T02:35:45;99979.56;;;0.91;100.00
64675;BME280;51090;51.512;11.332;2023-01-26T02:38:11;99973.38;;;0.92;100.00
64675;BME280;51090;51.512;11.332;2023-01-26T02:43:18;99957.03;;;0.90;100.00
64675;BME280;51090;51.512;11.332;2023-01-26T02:45:44;99955.75;;;0.96;100.00
64675;BME280;51090;51.512;11.332;2023-01-26T02:48:10;99961.00;;;1.07;100.00
64675;BME280;51090;51.512;11.332;2023-01-26T02:50:36;99959.72;;;1.13;100.00
64675;BME280;51090;51.512;11.332;2023-01-26T02:53:02;99958.66;;;1.15;100.00
64675;BME280;51090;51.512;11.332;2023-01-26T02:55:28;99944.56;;;1.18;100.00
64675;BME280;51090;51.512;11.332;2023-01-26T02:57:57;99946.16;;;1.32;100.00
64675;BME280;51090;51.512;11.332;2023-01-26T03:00:26;99948.72;;;1.44;100.00
64675;BME280;51090;51.512;11.332;2023-01-26T03:02:54;99950.75;;;1.52;100.00
64675;BME280;51090;51.512;11.332;2023-01-26T03:05:21;99946.13;;;1.56;100.00
64675;BME280;51090;51.512;11.332;2023-01-26T03:07:47;99954.59;;;1.70;100.00
64675;BME280;51090;51.512;11.332;2023-01-26T03:10:13;99947.09;;;1.77;100.00
64675;BME280;51090;51.512;11.332;2023-01-26T03:12:41;99955.34;;;1.84;100.00
64675;BME280;51090;51.512;11.332;2023-01-26T03:15:07;99955.72;;;1.90;100.00
64675;BME280;51090;51.512;11.332;2023-01-26T03:17:59;99955.59;;;1.92;100.00
64675;BME280;51090;51.512;11.332;2023-01-26T03:20:45;99957.13;;;1.94;100.00
64675;BME280;51090;51.512;11.332;2023-01-26T03:23:29;99947.25;;;1.87;100.00
64675;BME280;51090;51.512;11.332;2023-01-26T03:26:13;99936.31;;;1.82;100.00
64675;BME280;51090;51.512;11.332;2023-01-26T03:28:58;99918.22;;;1.67;100.00
64675;BME280;51090;51.512;11.332;2023-01-26T03:31:23;99934.03;;;1.77;100.00
64675;BME280;51090;51.512;11.332;2023-01-26T03:33:49;99936.88;;;1.74;100.00
64675;BME280;51090;51.512;11.332;2023-01-26T03:36:15;99941.78;;;1.79;100.00
64675;BME280;51090;51.512;11.332;2023-01-26T03:38:40;99941.69;;;1.80;100.00
64675;BME280;51090;51.512;11.332;2023-01-26T03:41:06;99932.97;;;1.80;100.00
64675;BME280;51090;51.512;11.332;2023-01-26T03:43:50;99928.47;;;1.82;100.00
64675;BME280;51090;51.512;11.332;2023-01-26T03:46:34;99930.50;;;1.78;100.00
64675;BME280;51090;51.512;11.332;2023-01-26T03:49:18;99926.56;;;1.72;100.00
64675;BME280;51090;51.512;11.332;2023-01-26T03:52:02;99923.00;;;1.73;100.00
64675;BME280;51090;51.512;11.332;2023-01-26T03:54:47;99910.50;;;1.66;100.00
64675;BME280;51090;51.512;11.332;2023-01-26T03:57:31;99931.06;;;1.70;100.00
64675;BME280;51090;51.512;11.332;2023-01-26T03:59:56;99932.84;;;1.70;100.00
64675;BME280;51090;51.512;11.332;2023-01-26T04:02:22;99922.84;;;1.64;100.00
64675;BME280;51090;51.512;11.332;2023-01-26T04:05:07;99922.41;;;1.70;100.00
64675;BME280;51090;51.512;11.332;2023-01-26T04:07:51;99916.69;;;1.76;100.00
64675;BME280;51090;51.512;11.332;2023-01-26T04:10:35;99912.44;;;1.86;100.00
64675;BME280;51090;51.512;11.332;2023-01-26T04:13:01;99913.88;;;1.90;100.00
64675;BME280;51090;51.512;11.332;2023-01-26T04:15:47;99909.56;;;1.89;100.00
64675;BME280;51090;51.512;11.332;2023-01-26T04:18:32;99890.69;;;1.86;100.00
64675;BME280;51090;51.512;11.332;2023-01-26T04:21:16;99906.84;;;2.02;100.00
64675;BME280;51090;51.512;11.332;2023-01-26T04:23:59;99912.69;;;2.06;100.00
64675;BME280;51090;51.512;11.332;2023-01-26T04:26:28;99907.31;;;2.07;100.00
64675;BME280;51090;51.512;11.332;2023-01-26T04:29:02;99905.19;;;2.12;100.00
64675;BME280;51090;51.512;11.332;2023-01-26T04:31:28;99909.00;;;2.08;100.00
64675;BME280;51090;51.512;11.332;2023-01-26T04:33:54;99903.41;;;2.02;100.00
64675;BME280;51090;51.512;11.332;2023-01-26T04:36:20;99897.31;;;1.90;100.00
64675;BME280;51090;51.512;11.332;2023-01-26T04:38:45;99913.00;;;1.90;100.00
64675;BME280;51090;51.512;11.332;2023-01-26T04:41:11;99896.16;;;1.83;100.00
64675;BME280;51090;51.512;11.332;2023-01-26T04:43:37;99902.06;;;1.85;100.00
64675;BME280;51090;51.512;11.332;2023-01-26T04:46:06;99904.00;;;1.94;100.00
64675;BME280;51090;51.512;11.332;2023-01-26T04:48:32;99897.59;;;1.98;100.00
64675;BME280;51090;51.512;11.332;2023-01-26T04:51:02;99902.81;;;2.09;100.00
64675;BME280;51090;51.512;11.332;2023-01-26T04:53:28;99892.44;;;2.08;100.00
64675;BME280;51090;51.512;11.332;2023-01-26T04:55:54;99893.31;;;2.08;100.00
64675;BME280;51090;51.512;11.332;2023-01-26T04:58:20;99887.00;;;2.00;100.00
64675;BME280;51090;51.512;11.332;2023-01-26T05:00:57;99893.66;;;2.04;100.00
64675;BME280;51090;51.512;11.332;2023-01-26T05:03:25;99895.31;;;2.05;100.00
64675;BME280;51090;51.512;11.332;2023-01-26T05:05:53;99887.47;;;1.93;100.00
64675;BME280;51090;51.512;11.332;2023-01-26T05:08:20;99897.59;;;1.98;100.00
64675;BME280;51090;51.512;11.332;2023-01-26T05:10:46;99899.84;;;1.91;100.00
64675;BME280;51090;51.512;11.332;2023-01-26T05:13:12;99896.25;;;1.92;100.00
64675;BME280;51090;51.512;11.332;2023-01-26T05:15:39;99891.88;;;1.93;100.00
64675;BME280;51090;51.512;11.332;2023-01-26T05:18:05;99897.22;;;1.91;100.00
64675;BME280;51090;51.512;11.332;2023-01-26T05:20:31;99900.06;;;1.88;100.00
64675;BME280;51090;51.512;11.332;2023-01-26T05:22:58;99909.81;;;1.86;100.00
64675;BME280;51090;51.512;11.332;2023-01-26T05:25:24;99903.28;;;1.81;100.00
64675;BME280;51090;51.512;11.332;2023-01-26T05:27:49;99909.56;;;1.78;100.00
64675;BME280;51090;51.512;11.332;2023-01-26T05:30:15;99907.53;;;1.70;100.00
64675;BME280;51090;51.512;11.332;2023-01-26T05:32:41;99909.91;;;1.62;100.00
64675;BME280;51090;51.512;11.332;2023-01-26T05:35:07;99914.19;;;1.63;100.00
64675;BME280;51090;51.512;11.332;2023-01-26T05:37:33;99914.41;;;1.60;100.00
64675;BME280;51090;51.512;11.332;2023-01-26T05:39:59;99909.88;;;1.51;100.00
64675;BME280;51090;51.512;11.332;2023-01-26T05:42:25;99912.47;;;1.51;100.00
64675;BME280;51090;51.512;11.332;2023-01-26T05:44:51;99899.16;;;1.43;100.00
64675;BME280;51090;51.512;11.332;2023-01-26T05:47:17;99903.66;;;1.41;100.00
64675;BME280;51090;51.512;11.332;2023-01-26T05:49:44;99900.56;;;1.36;100.00
64675;BME280;51090;51.512;11.332;2023-01-26T05:52:13;99900.78;;;1.33;100.00
64675;BME280;51090;51.512;11.332;2023-01-26T05:54:40;99910.91;;;1.37;100.00
64675;BME280;51090;51.512;11.332;2023-01-26T05:57:06;99914.59;;;1.35;100.00
64675;BME280;51090;51.512;11.332;2023-01-26T05:59:31;99913.75;;;1.34;100.00
64675;BME280;51090;51.512;11.332;2023-01-26T06:01:58;99910.66;;;1.40;100.00
64675;BME280;51090;51.512;11.332;2023-01-26T06:04:23;99904.50;;;1.41;100.00
64675;BME280;51090;51.512;11.332;2023-01-26T06:06:57;99909.53;;;1.56;100.00
64675;BME280;51090;51.512;11.332;2023-01-26T06:09:23;99918.91;;;1.58;100.00
64675;BME280;51090;51.512;11.332;2023-01-26T06:11:49;99914.06;;;1.65;100.00
64675;BME280;51090;51.512;11.332;2023-01-26T06:14:15;99918.34;;;1.77;100.00
64675;BME280;51090;51.512;11.332;2023-01-26T06:16:41;99918.97;;;1.81;100.00
64675;BME280;51090;51.512;11.332;2023-01-26T06:19:10;99922.88;;;1.86;100.00
64675;BME280;51090;51.512;11.332;2023-01-26T06:21:36;99917.56;;;1.88;100.00
64675;BME280;51090;51.512;11.332;2023-01-26T06:24:02;99930.72;;;1.98;100.00
64675;BME280;51090;51.512;11.332;2023-01-26T06:26:28;99929.56;;;2.02;100.00
64675;BME280;51090;51.512;11.332;2023-01-26T06:28:54;99930.28;;;2.04;100.00
64675;BME280;51090;51.512;11.332;2023-01-26T06:31:20;99932.75;;;2.05;100.00
64675;BME280;51090;51.512;11.332;2023-01-26T06:33:49;99934.44;;;2.06;100.00
64675;BME280;51090;51.512;11.332;2023-01-26T06:36:15;99923.97;;;2.06;100.00
64675;BME280;51090;51.512;11.332;2023-01-26T06:38:49;99930.88;;;2.18;100.00
64675;BME280;51090;51.512;11.332;2023-01-26T06:41:16;99933.25;;;2.22;100.00
64675;BME280;51090;51.512;11.332;2023-01-26T06:43:47;99936.59;;;2.24;100.00
64675;BME280;51090;51.512;11.332;2023-01-26T06:46:14;99933.00;;;2.25;100.00
64675;BME280;51090;51.512;11.332;2023-01-26T06:48:40;99933.50;;;2.30;100.00
64675;BME280;51090;51.512;11.332;2023-01-26T06:56:13;99935.88;;;2.33;100.00
64675;BME280;51090;51.512;11.332;2023-01-26T06:58:39;99937.88;;;2.40;100.00
64675;BME280;51090;51.512;11.332;2023-01-26T07:01:05;99929.19;;;2.40;100.00
64675;BME280;51090;51.512;11.332;2023-01-26T07:03:31;99936.22;;;2.39;100.00
64675;BME280;51090;51.512;11.332;2023-01-26T07:05:57;99935.88;;;2.44;100.00
64675;BME280;51090;51.512;11.332;2023-01-26T07:08:22;99929.66;;;2.45;100.00
64675;BME280;51090;51.512;11.332;2023-01-26T07:10:49;99939.44;;;2.43;100.00
64675;BME280;51090;51.512;11.332;2023-01-26T07:13:15;99940.25;;;2.44;100.00
64675;BME280;51090;51.512;11.332;2023-01-26T07:15:41;99938.34;;;2.46;100.00
64675;BME280;51090;51.512;11.332;2023-01-26T07:18:06;99929.66;;;2.45;100.00
64675;BME280;51090;51.512;11.332;2023-01-26T07:20:32;99925.97;;;2.48;100.00
64675;BME280;51090;51.512;11.332;2023-01-26T07:23:01;99925.38;;;2.55;100.00
64675;BME280;51090;51.512;11.332;2023-01-26T07:25:27;99917.88;;;2.51;100.00
64675;BME280;51090;51.512;11.332;2023-01-26T07:27:57;99929.78;;;2.55;100.00
64675;BME280;51090;51.512;11.332;2023-01-26T07:30:23;99919.66;;;2.50;100.00
64675;BME280;51090;51.512;11.332;2023-01-26T07:32:49;99937.41;;;2.58;100.00
64675;BME280;51090;51.512;11.332;2023-01-26T07:35:15;99913.38;;;2.42;100.00
64675;BME280;51090;51.512;11.332;2023-01-26T07:37:41;99938.97;;;2.49;100.00
64675;BME280;51090;51.512;11.332;2023-01-26T07:40:07;99937.16;;;2.50;100.00
64675;BME280;51090;51.512;11.332;2023-01-26T07:42:33;99937.28;;;2.48;100.00
64675;BME280;51090;51.512;11.332;2023-01-26T07:44:59;99943.34;;;2.49;100.00
64675;BME280;51090;51.512;11.332;2023-01-26T07:47:25;99940.88;;;2.47;100.00
64675;BME280;51090;51.512;11.332;2023-01-26T07:49:50;99937.28;;;2.48;100.00
64675;BME280;51090;51.512;11.332;2023-01-26T07:52:16;99934.66;;;2.48;100.00
64675;BME280;51090;51.512;11.332;2023-01-26T07:54:42;99942.06;;;2.54;100.00
64675;BME280;51090;51.512;11.332;2023-01-26T07:57:08;99937.41;;;2.58;100.00
64675;BME280;51090;51.512;11.332;2023-01-26T07:59:34;99941.31;;;2.64;100.00
64675;BME280;51090;51.512;11.332;2023-01-26T08:01:59;99942.53;;;2.59;100.00
64675;BME280;51090;51.512;11.332;2023-01-26T08:04:25;99939.25;;;2.67;100.00
64675;BME280;51090;51.512;11.332;2023-01-26T08:06:51;99950.00;;;2.75;100.00
64675;BME280;51090;51.512;11.332;2023-01-26T08:09:17;99952.22;;;2.80;100.00
64675;BME280;51090;51.512;11.332;2023-01-26T08:11:43;99955.56;;;2.82;100.00
64675;BME280;51090;51.512;11.332;2023-01-26T08:14:08;99956.16;;;2.86;100.00
64675;BME280;51090;51.512;11.332;2023-01-26T08:16:34;99950.06;;;2.85;100.00
64675;BME280;51090;51.512;11.332;2023-01-26T08:19:00;99942.91;;;2.87;100.00
64675;BME280;51090;51.512;11.332;2023-01-26T08:21:27;99940.91;;;2.91;100.00
64675;BME280;51090;51.512;11.332;2023-01-26T08:23:53;99939.38;;;2.88;100.00
64675;BME280;51090;51.512;11.332;2023-01-26T08:26:19;99937.69;;;2.87;100.00
64675;BME280;51090;51.512;11.332;2023-01-26T08:28:46;99943.97;;;2.96;100.00
64675;BME280;51090;51.512;11.332;2023-01-26T08:31:15;99937.19;;;2.93;100.00
64675;BME280;51090;51.512;11.332;2023-01-26T08:33:45;99945.88;;;2.94;100.00
64675;BME280;51090;51.512;11.332;2023-01-26T08:36:14;99943.41;;;2.81;100.00
64675;BME280;51090;51.512;11.332;2023-01-26T08:38:40;99941.78;;;2.69;100.00
64675;BME280;51090;51.512;11.332;2023-01-26T08:41:07;99937.88;;;2.52;100.00
64675;BME280;51090;51.512;11.332;2023-01-26T08:43:33;99952.06;;;2.49;100.00
64675;BME280;51090;51.512;11.332;2023-01-26T08:46:00;99942.41;;;2.38;100.00
64675;BME280;51090;51.512;11.332;2023-01-26T08:48:26;99942.53;;;2.37;100.00
64675;BME280;51090;51.512;11.332;2023-01-26T08:50:54;99942.78;;;2.34;100.00
64675;BME280;51090;51.512;11.332;2023-01-26T08:53:21;99941.09;;;2.22;100.00
64675;BME280;51090;51.512;11.332;2023-01-26T08:55:47;99945.88;;;2.16;100.00
64675;BME280;51090;51.512;11.332;2023-01-26T08:58:12;99948.25;;;2.08;100.00
64675;BME280;51090;51.512;11.332;2023-01-26T09:00:38;99947.88;;;2.02;100.00
64675;BME280;51090;51.512;11.332;2023-01-26T09:03:05;99945.94;;;1.92;100.00
64675;BME280;51090;51.512;11.332;2023-01-26T09:05:34;99945.25;;;1.90;100.00
64675;BME280;51090;51.512;11.332;2023-01-26T09:08:00;99938.69;;;1.73;100.00
64675;BME280;51090;51.512;11.332;2023-01-26T09:10:26;99938.44;;;1.65;100.00
64675;BME280;51090;51.512;11.332;2023-01-26T09:12:52;99945.88;;;1.59;100.00
64675;BME280;51090;51.512;11.332;2023-01-26T09:15:17;99945.28;;;1.55;100.00
64675;BME280;51090;51.512;11.332;2023-01-26T09:17:43;99954.44;;;1.61;100.00
64675;BME280;51090;51.512;11.332;2023-01-26T09:20:12;99957.63;;;1.53;100.00
64675;BME280;51090;51.512;11.332;2023-01-26T09:22:38;99963.09;;;1.50;100.00
64675;BME280;51090;51.512;11.332;2023-01-26T09:25:04;99958.94;;;1.47;100.00
64675;BME280;51090;51.512;11.332;2023-01-26T09:27:30;99952.16;;;1.45;100.00
64675;BME280;51090;51.512;11.332;2023-01-26T09:29:56;99958.94;;;1.47;100.00
64675;BME280;51090;51.512;11.332;2023-01-26T09:32:22;99957.13;;;1.37;100.00
64675;BME280;51090;51.512;11.332;2023-01-26T09:34:47;99960.44;;;1.39;100.00
64675;BME280;51090;51.512;11.332;2023-01-26T09:37:14;99951.66;;;1.40;100.00
64675;BME280;51090;51.512;11.332;2023-01-26T09:39:40;99967.66;;;1.35;100.00
64675;BME280;51090;51.512;11.332;2023-01-26T09:50:32;99959.44;;;1.52;100.00
64675;BME280;51090;51.512;11.332;2023-01-26T09:53:18;99956.47;;;1.57;100.00
64675;BME280;51090;51.512;11.332;2023-01-26T09:55:47;99949.72;;;1.66;100.00
64675;BME280;51090;51.512;11.332;2023-01-26T09:58:39;99947.16;;;1.88;100.00
64675;BME280;51090;51.512;11.332;2023-01-26T10:06:39;99948.84;;;2.12;100.00
64675;BME280;51090;51.512;11.332;2023-01-26T10:09:22;99952.16;;;2.25;100.00
64675;BME280;51090;51.512;11.332;2023-01-26T10:11:55;99938.47;;;2.33;100.00
64675;BME280;51090;51.512;11.332;2023-01-26T10:14:38;99943.13;;;2.40;100.00
64675;BME280;51090;51.512;11.332;2023-01-26T10:17:15;99936.81;;;2.54;100.00
64675;BME280;51090;51.512;11.332;2023-01-26T10:22:45;99948.09;;;2.66;100.00
64675;BME280;51090;51.512;11.332;2023-01-26T10:25:33;99935.34;;;2.61;100.00
64675;BME280;51090;51.512;11.332;2023-01-26T10:30:44;99915.47;;;2.70;100.00
64675;BME280;51090;51.512;11.332;2023-01-26T10:33:31;99943.97;;;2.96;100.00
64675;BME280;51090;51.512;11.332;2023-01-26T10:35:59;99935.72;;;3.00;100.00
64675;BME280;51090;51.512;11.332;2023-01-26T10:38:39;99916.09;;;3.06;100.00
64675;BME280;51090;51.512;11.332;2023-01-26T10:46:40;99919.13;;;3.43;100.00
64675;BME280;51090;51.512;11.332;2023-01-26T10:51:38;99908.72;;;3.21;100.00
64675;BME280;51090;51.512;11.332;2023-01-26T10:54:21;99907.91;;;3.20;100.00
64675;BME280;51090;51.512;11.332;2023-01-26T10:56:59;99900.22;;;3.08;100.00
64675;BME280;51090;51.512;11.332;2023-01-26T10:59:30;99907.50;;;3.04;100.00
64675;BME280;51090;51.512;11.332;2023-01-26T11:04:39;99910.78;;;2.85;100.00
64675;BME280;51090;51.512;11.332;2023-01-26T11:07:27;99899.97;;;2.78;100.00
64675;BME280;51090;51.512;11.332;2023-01-26T11:09:53;99898.59;;;2.63;100.00
64675;BME280;51090;51.512;11.332;2023-01-26T11:12:21;99892.59;;;2.29;96.71
64675;BME280;51090;51.512;11.332;2023-01-26T11:15:00;99899.81;;;2.25;99.74
64675;BME280;51090;51.512;11.332;2023-01-26T11:17:42;99902.56;;;2.24;100.00
64675;BME280;51090;51.512;11.332;2023-01-26T11:23:21;99891.75;;;2.17;99.51
64675;BME280;51090;51.512;11.332;2023-01-26T11:39:36;99873.53;;;2.27;99.87
64675;BME280;51090;51.512;11.332;2023-01-26T11:42:31;99862.44;;;2.46;100.00
64675;BME280;51090;51.512;11.332;2023-01-26T11:45:07;99862.03;;;2.73;100.00
64675;BME280;51090;51.512;11.332;2023-01-26T11:48:00;99853.56;;;3.01;100.00
64675;BME280;51090;51.512;11.332;2023-01-26T11:50:46;99853.47;;;3.24;93.74
64675;BME280;51090;51.512;11.332;2023-01-26T11:57:00;99844.69;;;3.35;93.10
64675;BME280;51090;51.512;11.332;2023-01-26T11:59:37;99840.91;;;3.48;100.00
64675;BME280;51090;51.512;11.332;2023-01-26T12:02:18;99838.66;;;3.65;100.00
64675;BME280;51090;51.512;11.332;2023-01-26T12:04:48;99831.88;;;3.62;100.00
64675;BME280;51090;51.512;11.332;2023-01-26T12:07:22;99826.22;;;3.67;99.35
64675;BME280;51090;51.512;11.332;2023-01-26T12:09:51;99828.84;;;3.67;100.00
64675;BME280;51090;51.512;11.332;2023-01-26T12:12:29;99822.84;;;3.76;98.43
64675;BME280;51090;51.512;11.332;2023-01-26T12:15:12;99825.56;;;3.75;92.87
64675;BME280;51090;51.512;11.332;2023-01-26T12:18:03;99824.25;;;3.80;98.32
64675;BME280;51090;51.512;11.332;2023-01-26T12:20:42;99815.63;;;3.68;100.00
64675;BME280;51090;51.512;11.332;2023-01-26T12:25:52;99783.97;;;3.60;100.00
64675;BME280;51090;51.512;11.332;2023-01-26T12:28:23;99811.69;;;3.84;100.00
64675;BME280;51090;51.512;11.332;2023-01-26T12:31:08;99827.38;;;3.74;98.51
64675;BME280;51090;51.512;11.332;2023-01-26T12:33:37;99813.03;;;3.47;99.62
64675;BME280;51090;51.512;11.332;2023-01-26T12:36:34;99815.03;;;3.34;97.68
64675;BME280;51090;51.512;11.332;2023-01-26T12:39:19;99821.31;;;3.22;100.00
64675;BME280;51090;51.512;11.332;2023-01-26T12:47:33;99818.00;;;2.88;100.00
64675;BME280;51090;51.512;11.332;2023-01-26T12:50:26;99813.75;;;2.87;100.00
64675;BME280;51090;51.512;11.332;2023-01-26T12:55:41;99809.91;;;2.91;100.00
64675;BME280;51090;51.512;11.332;2023-01-26T12:58:21;99817.72;;;3.02;100.00
64675;BME280;51090;51.512;11.332;2023-01-26T13:03:32;99796.81;;;3.12;100.00
64675;BME280;51090;51.512;11.332;2023-01-26T13:14:29;99800.88;;;3.46;100.00
64675;BME280;51090;51.512;11.332;2023-01-26T13:16:57;99801.31;;;3.52;100.00
64675;BME280;51090;51.512;11.332;2023-01-26T13:27:43;99796.44;;;3.68;99.88
64675;BME280;51090;51.512;11.332;2023-01-26T13:35:22;99794.44;;;3.91;100.00
64675;BME280;51090;51.512;11.332;2023-01-26T13:38:15;99789.47;;;3.98;100.00
64675;BME280;51090;51.512;11.332;2023-01-26T13:40:46;99777.19;;;3.98;100.00
64675;BME280;51090;51.512;11.332;2023-01-26T13:43:45;99789.81;;;4.14;100.00
64675;BME280;51090;51.512;11.332;2023-01-26T13:48:52;99781.56;;;4.38;100.00
64675;BME280;51090;51.512;11.332;2023-01-26T13:51:25;99778.22;;;4.36;98.93
64675;BME280;51090;51.512;11.332;2023-01-26T13:54:14;99785.69;;;4.31;99.22
64675;BME280;51090;51.512;11.332;2023-01-26T13:59:25;99784.72;;;4.22;100.00
64675;BME280;51090;51.512;11.332;2023-01-26T14:01:54;99787.38;;;4.32;100.00
64675;BME280;51090;51.512;11.332;2023-01-26T14:04:29;99788.59;;;4.38;100.00
64675;BME280;51090;51.512;11.332;2023-01-26T14:07:13;99787.94;;;4.45;100.00
64675;BME280;51090;51.512;11.332;2023-01-26T14:09:48;99788.75;;;4.46;100.00
64675;BME280;51090;51.512;11.332;2023-01-26T14:12:27;99785.03;;;4.48;100.00
64675;BME280;51090;51.512;11.332;2023-01-26T14:14:57;99786.53;;;4.51;100.00
64675;BME280;51090;51.512;11.332;2023-01-26T14:17:45;99795.94;;;4.53;100.00
64675;BME280;51090;51.512;11.332;2023-01-26T14:20:28;99805.88;;;4.59;100.00
64675;BME280;51090;51.512;11.332;2023-01-26T14:25:36;99801.47;;;4.50;100.00
64675;BME280;51090;51.512;11.332;2023-01-26T14:28:02;99789.56;;;4.36;100.00
64675;BME280;51090;51.512;11.332;2023-01-26T14:30:33;99803.81;;;4.44;100.00
64675;BME280;51090;51.512;11.332;2023-01-26T14:33:15;99800.78;;;4.48;100.00
64675;BME280;51090;51.512;11.332;2023-01-26T14:35:53;99799.78;;;4.49;100.00
64675;BME280;51090;51.512;11.332;2023-01-26T14:38:19;99798.44;;;4.45;100.00
64675;BME280;51090;51.512;11.332;2023-01-26T14:40:50;99801.88;;;4.46;100.00
64675;BME280;51090;51.512;11.332;2023-01-26T14:43:17;99810.03;;;4.43;100.00
64675;BME280;51090;51.512;11.332;2023-01-26T14:46:04;99791.78;;;4.41;100.00
64675;BME280;51090;51.512;11.332;2023-01-26T14:48:40;99797.31;;;4.38;100.00
64675;BME280;51090;51.512;11.332;2023-01-26T14:51:20;99798.41;;;4.35;100.00
64675;BME280;51090;51.512;11.332;2023-01-26T14:53:59;99804.75;;;4.33;100.00
64675;BME280;51090;51.512;11.332;2023-01-26T14:56:33;99814.56;;;4.31;100.00
64675;BME280;51090;51.512;11.332;2023-01-26T14:59:00;99816.66;;;4.27;100.00